createdAt,value
2023-08-08T00:04:25.500Z,75.87
2023-08-08T00:09:26.793Z,75.86
2023-08-08T00:14:28.030Z,76.47
2023-08-08T00:19:29.264Z,77.38
2023-08-08T00:24:30.567Z,77.21
2023-08-08T00:29:31.803Z,77.80
2023-08-08T00:34:33.173Z,78.04
2023-08-08T00:39:34.480Z,77.85
2023-08-08T00:44:35.786Z,79.19
2023-08-08T00:49:37.005Z,79.64
2023-08-08T00:54:38.253Z,79.87
2023-08-08T00:59:39.483Z,80.59
2023-08-08T01:04:40.970Z,80.06
2023-08-08T01:09:42.254Z,79.69
2023-08-08T01:14:43.492Z,80.80
2023-08-08T01:19:44.712Z,80.97
2023-08-08T01:24:45.916Z,80.95
2023-08-08T01:29:47.132Z,81.66
2023-08-08T01:34:48.373Z,81.63
2023-08-08T01:39:49.668Z,81.70
2023-08-08T01:44:50.958Z,81.29
2023-08-08T01:49:52.371Z,81.92
2023-08-08T01:54:53.655Z,81.75
2023-08-08T01:59:54.858Z,82.32
2023-08-08T02:04:56.056Z,82.07
2023-08-08T02:09:57.300Z,81.79
2023-08-08T02:14:58.515Z,81.58
2023-08-08T02:19:59.779Z,80.69
2023-08-08T02:25:01.099Z,80.42
2023-08-08T02:30:02.398Z,80.62
2023-08-08T02:35:03.647Z,79.68
2023-08-08T02:40:05.842Z,80.51
2023-08-08T02:45:07.071Z,80.24
2023-08-08T02:50:08.323Z,80.92
2023-08-08T02:55:09.546Z,81.36
2023-08-08T03:00:12.365Z,81.51
2023-08-08T03:05:13.649Z,80.94
2023-08-08T03:10:14.929Z,80.57
2023-08-08T03:15:16.346Z,81.07
2023-08-08T03:20:17.656Z,80.92
2023-08-08T03:25:19.023Z,80.49
2023-08-08T03:30:20.232Z,80.90
2023-08-08T03:35:21.482Z,80.60
2023-08-08T03:40:22.742Z,80.14
2023-08-08T03:45:24.011Z,79.64
2023-08-08T03:50:25.298Z,80.09
2023-08-08T03:55:26.622Z,79.71
2023-08-08T04:00:27.946Z,80.62
2023-08-08T04:05:29.221Z,82.08
2023-08-08T04:10:30.489Z,83.20
2023-08-08T04:15:31.708Z,82.50
2023-08-08T04:20:32.967Z,82.24
2023-08-08T04:25:34.245Z,82.76
2023-08-08T04:30:36.358Z,81.99
2023-08-08T04:35:37.705Z,82.06
2023-08-08T04:40:39.506Z,81.80
2023-08-08T04:45:40.990Z,82.41
2023-08-08T04:50:42.539Z,82.34
2023-08-08T04:55:43.812Z,80.42
2023-08-08T05:00:45.098Z,79.73
2023-08-08T05:05:46.333Z,80.08
2023-08-08T05:10:47.830Z,80.66
2023-08-08T05:15:49.199Z,80.09
2023-08-08T05:20:50.443Z,80.27
2023-08-08T05:25:51.665Z,80.32
2023-08-08T05:30:52.976Z,80.94
2023-08-08T05:35:54.198Z,80.05
2023-08-08T05:40:55.456Z,79.76
2023-08-08T05:45:56.720Z,79.63
2023-08-08T05:50:59.809Z,78.99
2023-08-08T05:56:01.141Z,78.67
2023-08-08T06:01:02.554Z,78.77
2023-08-08T06:06:30.349Z,78.59
2023-08-08T06:11:31.585Z,78.38
2023-08-08T06:16:33.149Z,79.06
2023-08-08T06:21:34.474Z,78.25
2023-08-08T06:26:35.696Z,80.92
2023-08-08T06:31:37.117Z,77.73
2023-08-08T06:36:38.387Z,76.63
2023-08-08T06:41:39.661Z,74.97
2023-08-08T06:46:40.969Z,75.14
2023-08-08T06:51:42.207Z,74.06
2023-08-08T06:56:43.470Z,74.36
2023-08-08T07:01:44.772Z,73.62
2023-08-08T07:06:46.209Z,72.65
2023-08-08T07:12:12.410Z,73.81
2023-08-08T07:17:13.188Z,70.04
2023-08-08T07:22:14.663Z,70.10
2023-08-08T07:27:16.120Z,68.27
2023-08-08T07:32:17.376Z,67.65
2023-08-08T07:37:21.608Z,68.21
2023-08-08T07:42:22.876Z,67.10
2023-08-08T07:47:24.248Z,66.53
2023-08-08T07:52:25.530Z,67.25
2023-08-08T07:57:26.825Z,67.30
2023-08-08T08:02:28.259Z,67.26
2023-08-08T08:07:29.608Z,66.37
2023-08-08T08:12:30.861Z,70.61
2023-08-08T08:17:32.323Z,69.78
2023-08-08T08:22:36.893Z,70.37
2023-08-08T08:27:38.103Z,72.05
2023-08-08T08:32:39.526Z,73.19
2023-08-08T08:37:40.830Z,71.02
2023-08-08T08:42:42.141Z,69.29
2023-08-08T08:47:43.727Z,67.21
2023-08-08T08:52:45.680Z,65.85
2023-08-08T08:57:47.116Z,64.53
2023-08-08T09:02:48.432Z,64.95
2023-08-08T09:07:49.855Z,62.14
2023-08-08T09:12:51.229Z,61.81
2023-08-08T09:17:52.589Z,59.99
2023-08-08T09:22:53.816Z,59.59
2023-08-08T09:27:55.097Z,59.65
2023-08-08T09:32:56.345Z,57.85
2023-08-08T09:37:57.718Z,54.90
2023-08-08T09:43:02.076Z,58.65
2023-08-08T09:48:08.476Z,54.74
2023-08-08T09:53:09.938Z,56.52
2023-08-08T09:58:11.325Z,54.70
2023-08-08T10:03:12.596Z,55.42
2023-08-08T10:08:13.947Z,55.71
2023-08-08T10:13:15.179Z,53.63
2023-08-08T10:18:16.512Z,55.28
2023-08-08T10:23:17.726Z,55.63
2023-08-08T10:28:26.673Z,55.64
2023-08-08T10:33:29.081Z,54.64
2023-08-08T10:38:30.372Z,52.61
2023-08-08T10:43:31.671Z,49.27
2023-08-08T10:48:32.893Z,47.98
2023-08-08T10:53:34.171Z,48.30
2023-08-08T10:58:35.387Z,48.74
2023-08-08T11:03:36.645Z,47.72
2023-08-08T11:08:39.254Z,51.81
2023-08-08T11:13:40.566Z,47.39
2023-08-08T11:18:41.845Z,49.16
2023-08-08T11:23:43.080Z,48.34
2023-08-08T11:28:44.332Z,49.32
2023-08-08T11:33:45.580Z,50.29
2023-08-08T11:38:46.797Z,47.47
2023-08-08T11:43:49.912Z,49.23
2023-08-08T11:48:51.219Z,47.13
2023-08-08T11:53:52.710Z,46.62
2023-08-08T11:58:54.042Z,46.40
2023-08-08T12:03:55.474Z,45.07
2023-08-08T12:08:56.999Z,43.80
2023-08-08T12:13:58.291Z,43.36
2023-08-08T12:18:59.557Z,40.42
2023-08-08T12:24:00.837Z,41.37
2023-08-08T12:29:02.090Z,41.67
2023-08-08T12:34:03.380Z,42.06
2023-08-08T12:39:05.886Z,38.64
2023-08-08T12:44:08.448Z,39.30
2023-08-08T12:49:09.742Z,39.45
2023-08-08T12:54:11.212Z,40.15
2023-08-08T12:59:12.452Z,39.37
2023-08-08T13:04:19.502Z,40.12
2023-08-08T13:09:21.590Z,39.77
2023-08-08T13:14:22.805Z,39.81
2023-08-08T13:19:26.082Z,39.79
2023-08-08T13:24:27.468Z,40.32
2023-08-08T13:29:28.673Z,39.45
2023-08-08T13:34:30.021Z,41.39
2023-08-08T13:39:31.237Z,38.49
2023-08-08T13:44:32.514Z,40.21
2023-08-08T13:49:33.900Z,36.53
2023-08-08T13:54:40.049Z,38.01
2023-08-08T13:59:44.247Z,38.49
2023-08-08T14:04:45.551Z,37.36
2023-08-08T14:09:46.757Z,38.03
2023-08-08T14:14:48.082Z,34.89
2023-08-08T14:19:49.560Z,35.51
2023-08-08T14:24:50.989Z,36.78
2023-08-08T14:29:52.335Z,38.76
2023-08-08T14:34:54.187Z,37.66
2023-08-08T14:39:55.612Z,38.04
2023-08-08T14:44:57.086Z,37.55
2023-08-08T14:49:58.399Z,37.73
2023-08-08T14:54:59.610Z,37.28
2023-08-08T15:00:02.075Z,38.18
2023-08-08T15:05:04.825Z,35.00
2023-08-08T15:10:06.513Z,35.25
2023-08-08T15:15:07.834Z,34.26
2023-08-08T15:20:09.090Z,33.89
2023-08-08T15:25:10.397Z,34.14
2023-08-08T15:30:11.691Z,32.86
2023-08-08T15:35:13.041Z,33.86
2023-08-08T15:40:14.262Z,35.34
2023-08-08T15:45:15.495Z,34.68
2023-08-08T15:50:16.723Z,34.64
2023-08-08T15:55:18.132Z,33.87
2023-08-08T16:00:20.434Z,33.39
2023-08-08T16:05:21.752Z,34.25
2023-08-08T16:10:23.178Z,34.73
2023-08-08T16:15:26.351Z,34.09
2023-08-08T16:20:27.614Z,35.93
2023-08-08T16:25:28.850Z,36.75
2023-08-08T16:30:30.199Z,36.41
2023-08-08T16:35:31.465Z,35.70
2023-08-08T16:40:32.682Z,36.57
2023-08-08T16:45:33.960Z,37.06
2023-08-08T16:50:35.194Z,36.81
2023-08-08T16:55:36.463Z,36.64
2023-08-08T17:00:37.749Z,36.67
2023-08-08T17:05:39.054Z,36.63
2023-08-08T17:10:41.931Z,37.40
2023-08-08T17:15:43.248Z,38.90
2023-08-08T17:20:44.907Z,38.98
2023-08-08T17:25:46.153Z,38.79
2023-08-08T17:30:47.405Z,38.43
2023-08-08T17:35:48.729Z,38.69
2023-08-08T17:40:50.074Z,38.75
2023-08-08T17:45:51.430Z,39.40
2023-08-08T17:50:52.667Z,39.78
2023-08-08T17:55:53.958Z,42.86
2023-08-08T18:00:55.164Z,46.21
2023-08-08T18:05:56.427Z,43.67
2023-08-08T18:10:57.631Z,45.56
2023-08-08T18:16:01.141Z,47.80
2023-08-08T18:21:02.841Z,46.85
2023-08-08T18:26:04.172Z,48.61
2023-08-08T18:31:05.484Z,50.54
2023-08-08T18:36:08.019Z,48.21
2023-08-08T18:41:09.208Z,50.74
2023-08-08T18:46:10.433Z,52.07
2023-08-08T18:51:11.713Z,52.98
2023-08-08T18:56:13.177Z,52.53
2023-08-08T19:01:14.450Z,53.28
2023-08-08T19:06:15.779Z,52.45
2023-08-08T19:11:17.052Z,52.32
2023-08-08T19:16:18.458Z,52.91
2023-08-08T19:21:20.235Z,54.32
2023-08-08T19:26:22.148Z,54.20
2023-08-08T19:31:23.527Z,54.60
2023-08-08T19:36:24.737Z,56.53
2023-08-08T19:41:26.038Z,57.25
2023-08-08T19:46:27.355Z,57.47
2023-08-08T19:51:31.661Z,57.42
2023-08-08T19:56:32.961Z,55.34
2023-08-08T20:01:34.275Z,58.01
2023-08-08T20:06:36.769Z,57.78
2023-08-08T20:11:42.286Z,57.70
2023-08-08T20:16:43.528Z,56.78
2023-08-08T20:21:44.817Z,59.57
2023-08-08T20:26:46.178Z,60.33
2023-08-08T20:31:47.483Z,61.68
2023-08-08T20:36:49.743Z,62.71
2023-08-08T20:41:50.964Z,63.37
2023-08-08T20:46:52.150Z,63.17
2023-08-08T20:51:53.379Z,64.34
2023-08-08T20:56:54.870Z,64.18
2023-08-08T21:01:56.196Z,64.03
2023-08-08T21:06:57.588Z,63.79
2023-08-08T21:11:58.844Z,64.55
2023-08-08T21:17:00.275Z,65.46
2023-08-08T21:22:01.997Z,65.07
2023-08-08T21:27:04.303Z,65.43
2023-08-08T21:32:05.893Z,65.98
2023-08-08T21:37:07.143Z,67.10
2023-08-08T21:42:09.388Z,66.15
2023-08-08T21:47:10.621Z,65.96
2023-08-08T21:52:11.829Z,65.83
2023-08-08T21:57:13.383Z,64.68
2023-08-08T22:02:16.561Z,65.68
2023-08-08T22:07:18.158Z,65.87
2023-08-08T22:12:19.371Z,66.30
2023-08-08T22:17:20.598Z,66.32
2023-08-08T22:22:21.835Z,65.71
2023-08-08T22:27:23.038Z,66.38
2023-08-08T22:32:24.498Z,65.62
2023-08-08T22:37:25.873Z,66.10
2023-08-08T22:42:27.110Z,65.87
2023-08-08T22:47:28.351Z,66.59
2023-08-08T22:52:29.600Z,67.83
2023-08-08T22:57:30.825Z,67.81
2023-08-08T23:02:32.164Z,66.81
2023-08-08T23:07:33.398Z,67.63
2023-08-08T23:12:34.633Z,67.43
2023-08-08T23:17:35.900Z,67.63
2023-08-08T23:22:37.157Z,68.56
2023-08-08T23:27:38.475Z,68.19
2023-08-08T23:32:44.125Z,67.42
2023-08-08T23:37:47.961Z,67.76
2023-08-08T23:42:49.175Z,68.52
2023-08-08T23:47:50.475Z,69.03
2023-08-08T23:52:51.822Z,68.67
2023-08-08T23:57:53.012Z,69.81
